createdAt,value
2019-04-16T05:24:29.246Z,51.08
2019-04-16T05:25:25.774Z,51.18
2019-04-16T05:54:36.050Z,49.13
2019-04-16T05:55:35.368Z,48.94
2019-04-16T05:57:38.044Z,48.49
2019-04-16T05:58:35.374Z,48.39
2019-04-16T05:59:35.335Z,48.58
2019-04-16T06:00:35.331Z,48.23
2019-04-16T06:01:37.049Z,48.04
2019-04-16T06:20:44.785Z,44.98
2019-04-16T06:21:34.168Z,44.89
2019-04-16T06:32:34.878Z,42.94
2019-04-16T06:33:26.358Z,43.23
2019-04-16T06:39:46.211Z,41.96
2019-04-16T06:40:15.165Z,41.77
2019-04-16T06:41:13.412Z,41.09
2019-04-16T06:42:20.982Z,41.31
2019-04-16T06:43:13.354Z,40.92
2019-04-16T06:44:18.223Z,40.75
2019-04-16T06:46:13.423Z,40.48
2019-04-16T06:47:13.403Z,40.00
2019-04-16T06:48:13.923Z,39.83
2019-04-16T06:49:14.341Z,39.28
2019-04-16T06:50:14.617Z,38.79
2019-04-16T06:59:40.893Z,35.42
2019-04-16T07:03:01.694Z,34.30
2019-04-16T07:03:40.709Z,33.82
2019-04-16T07:05:43.311Z,33.37
2019-04-16T07:06:43.528Z,33.58
2019-04-16T07:07:46.071Z,32.71
2019-04-16T07:08:41.908Z,32.24
2019-04-16T07:09:41.713Z,31.28
2019-04-16T07:10:44.651Z,30.62
2019-04-16T07:12:43.516Z,30.36
2019-04-16T07:13:42.245Z,30.07
2019-04-16T07:14:40.775Z,29.80
2019-04-16T07:15:43.465Z,28.65
2019-04-16T07:17:45.426Z,27.79
2019-04-16T07:18:40.733Z,27.22
2019-04-16T07:19:42.139Z,26.17
2019-04-16T07:20:42.320Z,25.78
2019-04-16T07:21:40.770Z,25.51
2019-04-16T07:23:40.727Z,24.66
2019-04-16T07:24:40.848Z,23.99
2019-04-16T07:25:43.125Z,24.10
2019-04-16T07:28:42.825Z,23.27
2019-04-16T07:29:40.728Z,22.51
2019-04-16T07:31:42.581Z,21.48
2019-04-16T07:32:42.536Z,20.82
2019-04-16T07:34:42.492Z,19.57
2019-04-16T07:36:41.510Z,18.33
2019-04-16T07:38:41.515Z,18.05
2019-04-16T07:39:40.676Z,17.67
2019-04-16T07:40:40.922Z,17.19
2019-04-16T07:41:43.173Z,17.10
2019-04-16T07:44:42.091Z,15.75
2019-04-16T07:48:40.677Z,14.40
2019-04-16T07:52:42.062Z,13.15
2019-04-16T07:53:40.720Z,12.76
2019-04-16T07:54:40.748Z,12.47
2019-04-16T07:55:40.746Z,12.68
2019-04-16T07:57:42.474Z,11.71
2019-04-16T07:58:40.727Z,11.41
2019-04-16T07:59:43.439Z,10.82
2019-04-16T08:00:41.530Z,10.43
2019-04-16T08:02:40.768Z,10.54
2019-04-16T08:04:40.793Z,10.55
2019-04-16T08:06:46.313Z,10.26
2019-04-16T08:07:40.722Z,9.58
2019-04-16T08:10:41.458Z,8.89
2019-04-16T08:11:40.758Z,8.59
2019-04-16T08:12:42.196Z,8.59
2019-04-16T08:13:40.856Z,8.40
2019-04-16T08:14:41.289Z,8.30
2019-04-16T08:15:41.848Z,7.90
2019-04-16T08:16:47.536Z,7.61
2019-04-16T08:20:40.846Z,6.71
2019-04-16T08:22:41.193Z,6.72
2019-04-16T08:23:40.845Z,6.52
2019-04-16T08:25:41.628Z,6.52
2019-04-16T08:28:41.639Z,6.23
2019-04-16T08:29:41.529Z,6.13
2019-04-16T08:32:41.489Z,6.14
2019-04-16T08:33:40.938Z,5.94
2019-04-16T08:34:40.935Z,5.44
2019-04-16T08:35:41.103Z,5.85
2019-04-16T08:36:41.971Z,5.76
2019-04-16T08:40:46.067Z,5.45
2019-04-16T08:41:41.555Z,5.26
2019-04-16T08:42:44.727Z,5.26
2019-04-16T08:43:42.044Z,5.05
2019-04-16T08:45:41.017Z,5.05
2019-04-16T08:47:44.626Z,5.15
2019-04-16T08:50:41.042Z,4.85
2019-04-16T08:51:42.050Z,5.05
2019-04-16T08:53:43.791Z,4.96
2019-04-16T08:54:41.288Z,4.35
2019-04-16T08:55:42.023Z,4.35
2019-04-16T08:57:41.897Z,4.25
2019-04-16T08:58:41.624Z,4.56
2019-04-16T08:59:42.589Z,4.46
2019-04-16T09:00:46.016Z,4.56
2019-04-16T09:04:08.666Z,4.57
2019-04-16T09:05:11.296Z,4.67
2019-04-16T09:06:12.813Z,3.96
2019-04-16T09:07:11.935Z,4.06
2019-04-16T09:08:13.014Z,4.06
2019-04-16T09:09:13.501Z,3.76
2019-04-16T09:10:17.487Z,4.06
2019-04-16T09:11:21.735Z,3.96
2019-04-16T09:12:09.431Z,4.06
2019-04-16T09:13:08.389Z,4.27
2019-04-16T09:14:08.859Z,3.86
2019-04-16T09:18:48.995Z,3.77
2019-04-16T09:19:48.597Z,3.67
2019-04-16T09:20:49.156Z,3.36
2019-04-16T09:21:48.494Z,3.77
2019-04-16T09:22:49.694Z,3.67
2019-04-16T09:24:48.575Z,3.26
2019-04-16T09:25:48.516Z,3.26
2019-04-16T09:26:48.673Z,3.36
2019-04-16T09:27:48.663Z,3.16
2019-04-16T09:28:48.867Z,3.16
2019-04-16T09:29:48.549Z,3.16
2019-04-16T09:30:49.682Z,3.26
2019-04-16T09:31:54.846Z,3.56
2019-04-16T09:32:48.772Z,3.36
2019-04-16T09:33:50.539Z,3.26
2019-04-16T09:34:48.965Z,3.26
2019-04-16T09:35:48.746Z,3.05
2019-04-16T09:36:49.200Z,2.75
2019-04-16T09:37:51.146Z,2.44
2019-04-16T09:38:48.631Z,2.95
2019-04-16T09:39:48.683Z,2.95
2019-04-16T09:40:49.265Z,3.05
2019-04-16T09:41:48.752Z,3.25
2019-04-16T09:42:50.865Z,3.46
2019-04-16T09:43:48.745Z,3.36
2019-04-16T09:44:49.029Z,3.46
2019-04-16T09:45:48.862Z,3.25
2019-04-16T09:46:51.825Z,3.36
2019-04-16T09:47:49.595Z,3.36
2019-04-16T09:48:50.231Z,3.36
2019-04-16T09:49:48.807Z,3.26
2019-04-16T09:50:49.789Z,3.25
2019-04-16T09:51:50.399Z,3.36
2019-04-16T09:53:51.505Z,3.25
2019-04-16T09:54:48.772Z,3.16
2019-04-16T09:55:50.589Z,3.16
2019-04-16T09:56:53.619Z,2.95
2019-04-16T09:57:49.605Z,3.26
2019-04-16T09:58:50.923Z,3.36
2019-04-16T09:59:49.544Z,2.75
2019-04-16T10:00:48.851Z,2.95
2019-04-16T10:01:49.526Z,3.27
2019-04-16T10:02:50.746Z,3.16
2019-04-16T10:03:48.912Z,3.16
2019-04-16T10:04:49.552Z,3.16
2019-04-16T10:05:49.251Z,2.96
2019-04-16T10:06:50.174Z,2.96
2019-04-16T10:07:50.466Z,2.45
2019-04-16T10:08:49.575Z,2.86
2019-04-16T10:09:51.416Z,2.66
2019-04-16T10:10:49.101Z,2.66
2019-04-16T10:11:48.991Z,2.14
2019-04-16T10:12:49.109Z,2.14
2019-04-16T10:13:51.324Z,2.24
2019-04-16T10:14:49.107Z,2.65
2019-04-16T10:15:49.625Z,2.65
2019-04-16T10:16:50.129Z,2.55
2019-04-16T10:31:58.586Z,2.14
2019-04-16T10:32:59.355Z,2.14
2019-04-16T11:05:02.201Z,2.66
2019-04-16T11:19:40.356Z,1.42
2019-04-16T11:22:28.844Z,1.62
2019-04-16T11:26:58.653Z,2.14
2019-04-16T12:38:19.598Z,1.53
2019-04-16T12:39:12.084Z,1.73
2019-04-16T12:55:02.547Z,2.23
2019-04-16T13:02:37.680Z,2.64
2019-04-16T13:03:30.036Z,2.03
2019-04-16T13:05:29.927Z,2.14
2019-04-16T13:06:29.960Z,2.03
2019-04-16T13:07:29.883Z,1.82
2019-04-16T13:08:31.750Z,2.23
2019-04-16T13:09:29.916Z,2.13
2019-04-16T13:10:29.959Z,2.13
2019-04-16T13:11:31.923Z,2.03
2019-04-16T13:12:32.827Z,2.23
2019-04-16T13:13:30.832Z,2.13
2019-04-16T13:14:30.104Z,2.03
2019-04-16T13:15:30.080Z,2.23
2019-04-16T13:31:55.337Z,3.22
2019-04-16T13:32:56.050Z,3.22
2019-04-16T13:42:56.099Z,3.42
2019-04-16T13:55:10.512Z,4.01
2019-04-16T13:56:07.794Z,4.11
2019-04-16T13:57:28.846Z,3.81
2019-04-16T13:58:07.878Z,3.81
2019-04-16T14:01:12.394Z,4.00
2019-04-16T14:02:16.991Z,3.61
2019-04-16T14:06:28.977Z,4.21
2019-04-16T14:22:13.737Z,5.29
2019-04-16T14:31:49.617Z,5.78
2019-04-16T14:32:19.693Z,5.97
2019-04-16T14:38:21.962Z,6.16
2019-04-16T14:39:10.919Z,6.46
2019-04-16T14:41:11.882Z,6.16
2019-04-16T14:42:09.061Z,6.26
2019-04-16T14:43:09.893Z,6.56
2019-04-16T14:44:09.147Z,6.46
2019-04-16T14:45:09.091Z,6.26
2019-04-16T14:46:09.925Z,6.46
2019-04-16T14:47:09.939Z,6.37
2019-04-16T14:50:15.120Z,6.66
2019-04-16T14:51:05.503Z,6.65
2019-04-16T14:58:01.454Z,7.14
2019-04-16T14:58:53.874Z,7.23
2019-04-16T15:02:50.339Z,7.23
2019-04-16T15:03:50.091Z,7.23
2019-04-16T15:05:44.701Z,7.43
2019-04-16T15:06:43.820Z,7.42
2019-04-16T15:09:01.228Z,7.52
2019-04-16T15:10:02.635Z,7.91
2019-04-16T15:12:01.855Z,7.91
2019-04-16T15:13:01.680Z,7.91
2019-04-16T15:14:00.848Z,7.81
2019-04-16T15:16:09.374Z,8.01
2019-04-16T15:17:00.857Z,8.01
2019-04-16T15:18:01.918Z,8.30
2019-04-16T15:19:01.863Z,8.11
2019-04-16T15:20:00.818Z,8.49
2019-04-16T15:21:03.665Z,8.38
2019-04-16T15:22:00.827Z,8.87
2019-04-16T15:23:00.819Z,8.86
2019-04-16T15:24:02.127Z,9.55
2019-04-16T15:25:00.859Z,9.44
2019-04-16T15:26:00.911Z,9.34
2019-04-16T15:27:00.812Z,9.53
2019-04-16T15:29:01.755Z,10.30
2019-04-16T15:30:00.807Z,10.49
2019-04-16T15:31:02.597Z,10.68
2019-04-16T15:33:06.050Z,11.54
2019-04-16T15:34:02.747Z,12.01
2019-04-16T15:35:05.737Z,12.30
2019-04-16T15:36:00.833Z,13.06
